createdAt,value
2019-05-23T00:02:19.485Z,85.29
2019-05-23T00:04:51.690Z,85.26
2019-05-23T00:07:20.393Z,85.12
2019-05-23T00:09:49.481Z,85.09
2019-05-23T00:12:36.832Z,85.02
2019-05-23T00:15:13.874Z,85.08
2019-05-23T00:17:42.020Z,85.06
2019-05-23T00:20:09.517Z,84.92
2019-05-23T00:22:37.209Z,84.99
2019-05-23T00:25:05.197Z,85.11
2019-05-23T00:27:33.369Z,85.18
2019-05-23T00:30:02.380Z,85.42
2019-05-23T00:32:35.227Z,85.36
2019-05-23T00:35:03.730Z,85.67
2019-05-23T00:37:33.191Z,85.54
2019-05-23T00:40:00.254Z,85.48
2019-05-23T00:42:28.989Z,85.40
2019-05-23T00:44:56.713Z,85.40
2019-05-23T00:47:23.886Z,85.32
2019-05-23T00:49:51.145Z,85.43
2019-05-23T00:52:19.425Z,85.43
2019-05-23T00:54:46.678Z,85.51
2019-05-23T00:57:14.533Z,85.50
2019-05-23T00:59:41.965Z,85.45
2019-05-23T01:02:10.566Z,85.47
2019-05-23T01:04:39.551Z,85.20
2019-05-23T01:07:07.240Z,85.26
2019-05-23T01:09:35.712Z,85.43
2019-05-23T01:12:04.685Z,85.39
2019-05-23T01:14:31.774Z,85.30
2019-05-23T01:17:02.327Z,85.31
2019-05-23T01:19:29.491Z,85.21
2019-05-23T01:21:59.492Z,85.31
2019-05-23T01:24:37.937Z,85.29
2019-05-23T01:27:06.551Z,85.45
2019-05-23T01:29:38.906Z,85.43
2019-05-23T01:32:14.323Z,85.32
2019-05-23T01:34:42.819Z,85.21
2019-05-23T01:37:10.491Z,85.27
2019-05-23T01:39:37.585Z,85.37
2019-05-23T01:42:04.711Z,85.20
2019-05-23T01:44:32.057Z,85.48
2019-05-23T01:46:59.473Z,85.52
2019-05-23T01:49:26.573Z,85.45
2019-05-23T01:51:54.045Z,85.43
2019-05-23T01:54:21.405Z,85.44
2019-05-23T01:56:48.615Z,85.38
2019-05-23T01:59:15.904Z,85.30
2019-05-23T02:01:43.409Z,85.32
2019-05-23T02:04:10.785Z,85.30
2019-05-23T02:06:38.309Z,85.32
2019-05-23T02:09:08.037Z,85.33
2019-05-23T02:11:35.703Z,85.31
2019-05-23T02:14:03.522Z,85.29
2019-05-23T02:16:31.095Z,85.21
2019-05-23T02:18:58.396Z,85.09
2019-05-23T02:21:26.273Z,85.06
2019-05-23T02:23:53.862Z,84.93
2019-05-23T02:26:22.991Z,84.75
2019-05-23T02:28:50.209Z,84.70
2019-05-23T02:31:18.090Z,84.63
2019-05-23T02:33:45.285Z,84.63
2019-05-23T02:36:12.546Z,84.61
2019-05-23T02:38:58.180Z,84.57
2019-05-23T02:41:48.691Z,84.48
2019-05-23T02:44:20.089Z,84.35
2019-05-23T02:47:15.297Z,84.34
2019-05-23T02:49:42.387Z,84.38
2019-05-23T02:52:41.592Z,84.44
2019-05-23T02:55:16.667Z,84.35
2019-05-23T02:57:44.484Z,84.40
2019-05-23T03:00:54.755Z,84.51
2019-05-23T03:03:25.117Z,84.59
2019-05-23T03:05:52.444Z,84.46
2019-05-23T03:08:20.839Z,84.37
2019-05-23T03:10:52.036Z,84.42
2019-05-23T03:13:20.801Z,84.40
2019-05-23T03:15:48.293Z,84.36
2019-05-23T03:18:15.681Z,84.37
2019-05-23T03:20:42.745Z,84.47
2019-05-23T03:23:14.742Z,84.49
2019-05-23T03:26:20.892Z,84.39
2019-05-23T03:28:49.177Z,84.37
2019-05-23T03:31:29.999Z,84.54
2019-05-23T03:33:52.634Z,84.49
2019-05-23T03:36:19.735Z,84.48
2019-05-23T03:38:46.914Z,84.46
2019-05-23T03:41:13.990Z,84.39
2019-05-23T03:43:41.189Z,84.46
2019-05-23T03:46:10.252Z,84.46
2019-05-23T03:48:37.639Z,84.47
2019-05-23T03:51:05.617Z,84.37
2019-05-23T03:53:35.193Z,84.22
2019-05-23T03:56:03.373Z,84.23
2019-05-23T03:58:30.973Z,84.26
2019-05-23T04:01:00.943Z,84.24
2019-05-23T04:03:28.887Z,84.23
2019-05-23T04:05:56.181Z,84.20
2019-05-23T04:08:23.874Z,84.24
2019-05-23T04:10:52.250Z,84.29
2019-05-23T04:13:19.656Z,84.14
2019-05-23T04:15:47.322Z,84.15
2019-05-23T04:18:14.476Z,84.03
2019-05-23T04:20:41.662Z,84.14
2019-05-23T04:23:08.833Z,84.10
2019-05-23T04:25:35.921Z,84.05
2019-05-23T04:28:03.724Z,83.91
2019-05-23T04:30:30.785Z,83.87
2019-05-23T04:32:57.868Z,83.94
2019-05-23T04:35:25.303Z,83.95
2019-05-23T04:37:52.704Z,84.01
2019-05-23T04:40:19.879Z,84.00
2019-05-23T04:42:46.985Z,84.06
2019-05-23T04:45:14.151Z,84.00
2019-05-23T04:47:41.222Z,83.85
2019-05-23T04:50:11.511Z,83.52
2019-05-23T04:52:38.616Z,83.66
2019-05-23T04:55:09.529Z,83.39
2019-05-23T04:57:36.944Z,82.87
2019-05-23T05:00:04.506Z,82.31
2019-05-23T05:02:31.580Z,82.18
2019-05-23T05:07:38.079Z,82.75
2019-05-23T05:10:05.477Z,83.49
2019-05-23T05:12:33.536Z,83.28
2019-05-23T05:15:00.618Z,82.54
2019-05-23T05:17:27.774Z,80.54
2019-05-23T05:19:54.942Z,79.04
2019-05-23T05:22:22.203Z,79.04
2019-05-23T05:24:49.337Z,78.91
2019-05-23T05:29:55.664Z,77.90
2019-05-23T05:35:17.962Z,76.18
2019-05-23T05:37:45.132Z,75.51
2019-05-23T05:40:15.734Z,74.82
2019-05-23T05:42:45.362Z,74.47
2019-05-23T05:45:12.675Z,71.88
2019-05-23T05:47:40.263Z,71.89
2019-05-23T05:50:07.979Z,70.96
2019-05-23T05:52:35.089Z,70.80
2019-05-23T05:55:02.333Z,70.25
2019-05-23T05:57:29.384Z,70.63
2019-05-23T05:59:56.490Z,70.63
2019-05-23T06:02:24.972Z,70.25
2019-05-23T06:04:52.087Z,69.95
2019-05-23T06:07:33.849Z,68.11
2019-05-23T06:10:02.919Z,69.73
2019-05-23T06:12:29.982Z,69.73
2019-05-23T06:14:57.057Z,69.38
2019-05-23T06:17:24.354Z,68.51
2019-05-23T06:19:51.451Z,68.51
2019-05-23T06:22:19.342Z,67.36
2019-05-23T06:24:51.951Z,66.86
2019-05-23T06:27:17.442Z,66.90
2019-05-23T06:32:25.273Z,65.58
2019-05-23T06:34:54.479Z,65.96
2019-05-23T06:37:21.668Z,66.59
2019-05-23T06:39:48.959Z,65.30
2019-05-23T06:42:16.160Z,64.86
2019-05-23T06:44:43.453Z,66.35
2019-05-23T06:47:10.620Z,66.35
2019-05-23T06:49:37.994Z,66.37
2019-05-23T06:52:05.074Z,65.94
2019-05-23T06:54:32.145Z,65.61
2019-05-23T06:56:59.213Z,66.11
2019-05-23T06:59:26.334Z,65.33
2019-05-23T07:01:53.396Z,64.80
2019-05-23T07:04:21.275Z,65.74
2019-05-23T07:06:48.449Z,67.12
2019-05-23T07:09:16.680Z,67.36
2019-05-23T07:11:43.788Z,66.75
2019-05-23T07:14:11.053Z,65.38
2019-05-23T07:16:38.172Z,65.08
2019-05-23T07:19:05.242Z,66.92
2019-05-23T07:21:32.419Z,64.09
2019-05-23T07:23:59.526Z,63.89
2019-05-23T07:26:26.893Z,64.29
2019-05-23T07:28:54.106Z,64.42
2019-05-23T07:31:21.594Z,64.71
2019-05-23T07:34:01.278Z,63.92
2019-05-23T07:36:17.755Z,64.69
2019-05-23T07:38:44.866Z,65.44
2019-05-23T07:41:12.690Z,64.63
2019-05-23T07:43:39.854Z,64.68
2019-05-23T07:46:07.355Z,64.85
2019-05-23T07:48:35.362Z,62.49
2019-05-23T07:51:02.433Z,63.44
2019-05-23T07:53:48.027Z,64.92
2019-05-23T07:56:17.715Z,64.93
2019-05-23T07:58:44.995Z,64.19
2019-05-23T08:01:14.331Z,64.27
2019-05-23T08:03:41.869Z,64.55
2019-05-23T08:06:09.458Z,63.11
2019-05-23T08:08:36.621Z,62.34
2019-05-23T08:11:03.685Z,63.77
2019-05-23T08:13:31.297Z,62.69
2019-05-23T08:15:58.858Z,62.91
2019-05-23T08:18:26.195Z,62.26
2019-05-23T08:20:53.354Z,61.23
2019-05-23T08:23:20.833Z,60.71
2019-05-23T08:25:48.216Z,59.71
2019-05-23T08:28:15.495Z,59.60
2019-05-23T08:30:42.568Z,60.19
2019-05-23T08:33:10.663Z,59.50
2019-05-23T08:35:38.043Z,56.08
2019-05-23T08:38:05.887Z,55.41
2019-05-23T08:40:32.980Z,56.03
2019-05-23T08:43:00.554Z,54.82
2019-05-23T08:45:28.154Z,55.27
2019-05-23T08:47:55.217Z,54.80
2019-05-23T08:50:23.369Z,55.13
2019-05-23T08:52:50.450Z,54.33
2019-05-23T08:55:19.546Z,52.74
2019-05-23T08:57:46.868Z,53.14
2019-05-23T09:00:15.877Z,54.27
2019-05-23T09:02:43.290Z,54.09
2019-05-23T09:05:10.852Z,52.15
2019-05-23T09:07:37.935Z,53.72
2019-05-23T09:10:05.556Z,54.14
2019-05-23T09:12:33.027Z,53.91
2019-05-23T09:15:00.131Z,52.47
2019-05-23T09:17:27.318Z,54.06
2019-05-23T09:19:54.406Z,54.76
2019-05-23T09:22:21.611Z,54.85
2019-05-23T09:24:48.707Z,54.29
2019-05-23T09:27:15.805Z,54.96
2019-05-23T09:29:42.997Z,54.15
2019-05-23T09:32:10.154Z,55.32
2019-05-23T09:34:37.239Z,54.50
2019-05-23T09:37:04.446Z,54.04
2019-05-23T09:39:31.751Z,52.74
2019-05-23T09:41:58.824Z,50.61
2019-05-23T09:44:25.913Z,50.08
2019-05-23T09:46:53.028Z,50.26
2019-05-23T09:49:20.088Z,50.77
2019-05-23T09:51:48.505Z,51.76
2019-05-23T09:54:16.970Z,51.31
2019-05-23T09:56:44.279Z,51.33
2019-05-23T09:59:11.332Z,52.49
2019-05-23T10:01:38.515Z,51.09
2019-05-23T10:04:06.008Z,48.81
2019-05-23T10:06:33.124Z,48.81
2019-05-23T10:09:00.242Z,46.93
2019-05-23T10:11:27.280Z,44.19
2019-05-23T10:13:54.392Z,45.19
2019-05-23T10:16:21.502Z,44.28
2019-05-23T10:18:48.917Z,43.66
2019-05-23T10:21:16.008Z,44.78
2019-05-23T10:23:43.107Z,45.65
2019-05-23T10:26:10.405Z,46.97
2019-05-23T10:28:37.477Z,46.26
2019-05-23T10:31:06.318Z,45.72
2019-05-23T10:33:33.402Z,45.95
2019-05-23T10:36:01.357Z,43.30
2019-05-23T10:38:29.565Z,42.41
2019-05-23T10:40:57.400Z,41.02
2019-05-23T10:43:24.680Z,41.60
2019-05-23T10:45:51.865Z,39.91
2019-05-23T10:48:20.088Z,39.16
2019-05-23T10:50:47.448Z,39.90
2019-05-23T10:53:15.310Z,40.92
2019-05-23T10:55:42.737Z,40.27
2019-05-23T10:58:10.282Z,40.66
2019-05-23T11:00:39.304Z,39.21
2019-05-23T11:03:06.576Z,37.93
2019-05-23T11:05:33.654Z,38.64
2019-05-23T11:08:02.133Z,36.80
2019-05-23T11:10:29.889Z,36.08
2019-05-23T11:12:56.940Z,37.67
2019-05-23T11:15:24.002Z,36.44
2019-05-23T11:17:53.786Z,38.67
2019-05-23T11:20:20.595Z,37.35
2019-05-23T11:22:47.679Z,38.90
2019-05-23T11:25:16.933Z,39.05
2019-05-23T11:27:44.306Z,39.03
2019-05-23T11:30:14.489Z,38.27
2019-05-23T11:32:41.561Z,36.52
2019-05-23T11:35:08.660Z,36.58
2019-05-23T11:37:35.738Z,34.90
2019-05-23T11:40:03.021Z,36.11
2019-05-23T11:42:30.093Z,36.33
2019-05-23T11:44:57.184Z,35.92
2019-05-23T11:47:24.675Z,35.87
2019-05-23T11:49:51.758Z,33.12
2019-05-23T11:52:18.860Z,34.74
2019-05-23T11:54:46.036Z,34.91
2019-05-23T11:57:13.235Z,35.33
2019-05-23T11:59:40.833Z,33.79
2019-05-23T12:02:20.460Z,33.26
2019-05-23T12:04:47.609Z,33.10
2019-05-23T12:07:24.098Z,35.38
2019-05-23T12:09:51.219Z,36.81
2019-05-23T12:12:18.526Z,37.46
2019-05-23T12:14:45.597Z,35.62
2019-05-23T12:17:14.730Z,35.04
2019-05-23T12:19:42.363Z,33.48
2019-05-23T12:22:09.659Z,32.27
2019-05-23T12:24:36.770Z,32.60
2019-05-23T12:27:03.931Z,31.73
2019-05-23T12:29:31.029Z,32.54
2019-05-23T12:31:58.416Z,31.56
2019-05-23T12:34:25.509Z,30.99
2019-05-23T12:36:52.623Z,31.18
2019-05-23T12:39:19.693Z,29.33
2019-05-23T12:41:46.899Z,29.59
2019-05-23T12:44:17.288Z,31.03
2019-05-23T12:46:43.111Z,31.22
2019-05-23T12:49:19.959Z,29.94
2019-05-23T12:51:47.024Z,30.53
2019-05-23T12:54:14.125Z,30.31
2019-05-23T12:56:41.225Z,30.32
2019-05-23T12:59:08.901Z,29.95
2019-05-23T13:01:38.414Z,30.33
2019-05-23T13:04:09.966Z,29.61
2019-05-23T13:06:35.060Z,28.64
2019-05-23T13:09:02.238Z,28.88
2019-05-23T13:11:29.646Z,27.74
2019-05-23T13:13:56.727Z,30.16
2019-05-23T13:16:25.140Z,31.42
2019-05-23T13:18:52.232Z,32.49
2019-05-23T13:21:19.338Z,31.88
2019-05-23T13:23:46.642Z,30.28
2019-05-23T13:26:13.866Z,29.37
2019-05-23T13:28:40.965Z,28.92
2019-05-23T13:31:08.105Z,29.23
2019-05-23T13:33:35.391Z,30.11
2019-05-23T13:36:03.158Z,29.86
2019-05-23T13:38:30.262Z,28.68
2019-05-23T13:40:57.330Z,27.84
2019-05-23T13:43:25.743Z,26.88
2019-05-23T13:45:52.953Z,26.18
2019-05-23T13:48:20.152Z,26.83
2019-05-23T13:50:47.327Z,26.79
2019-05-23T13:53:14.431Z,25.93
2019-05-23T13:55:41.848Z,26.49
2019-05-23T13:58:08.952Z,26.33
2019-05-23T14:00:36.438Z,26.95
2019-05-23T14:03:04.250Z,25.66
2019-05-23T14:05:31.637Z,26.27
2019-05-23T14:08:11.441Z,25.94
2019-05-23T14:10:28.553Z,25.52
2019-05-23T14:12:55.693Z,25.77
2019-05-23T14:15:25.679Z,26.02
2019-05-23T14:17:52.819Z,25.34
2019-05-23T14:20:20.494Z,26.46
2019-05-23T14:22:55.976Z,25.75
2019-05-23T14:25:23.564Z,26.19
2019-05-23T14:28:02.191Z,27.46
2019-05-23T14:30:47.522Z,27.91
2019-05-23T14:33:33.181Z,28.22
2019-05-23T14:36:02.495Z,26.99
2019-05-23T14:38:31.946Z,26.78
2019-05-23T14:40:59.574Z,27.16
2019-05-23T14:43:27.089Z,26.15
2019-05-23T14:46:00.242Z,26.48
2019-05-23T14:48:56.024Z,25.93
2019-05-23T14:51:41.105Z,26.12
2019-05-23T14:54:15.897Z,26.69
2019-05-23T14:56:43.368Z,27.18
2019-05-23T14:59:10.774Z,26.39
2019-05-23T15:01:37.963Z,25.29
2019-05-23T15:04:05.363Z,25.36
2019-05-23T15:06:32.782Z,25.56
2019-05-23T15:08:59.881Z,24.86
2019-05-23T15:11:27.066Z,24.96
2019-05-23T15:13:54.368Z,25.32
2019-05-23T15:16:21.807Z,25.30
2019-05-23T15:18:49.020Z,24.76
2019-05-23T15:21:16.104Z,23.83
2019-05-23T15:23:43.217Z,24.71
2019-05-23T15:26:22.376Z,24.38
2019-05-23T15:28:39.339Z,24.96
2019-05-23T15:31:07.060Z,25.20
2019-05-23T15:33:34.160Z,25.26
2019-05-23T15:36:01.281Z,24.78
2019-05-23T15:38:28.448Z,24.80
2019-05-23T15:40:55.638Z,25.94
2019-05-23T15:43:22.724Z,27.18
2019-05-23T15:45:49.835Z,26.35
2019-05-23T15:48:16.984Z,26.27
2019-05-23T15:50:49.211Z,26.06
2019-05-23T15:53:29.334Z,26.35
2019-05-23T15:56:27.523Z,27.60
2019-05-23T15:58:53.361Z,27.48
2019-05-23T16:01:28.500Z,27.14
2019-05-23T16:04:05.152Z,27.56
2019-05-23T16:06:34.884Z,27.57
2019-05-23T16:09:01.992Z,27.07
2019-05-23T16:11:29.203Z,26.97
2019-05-23T16:13:56.309Z,27.62
2019-05-23T16:16:23.473Z,26.32
2019-05-23T16:18:50.704Z,27.83
2019-05-23T16:21:18.107Z,27.91
2019-05-23T16:23:45.427Z,27.71
2019-05-23T16:26:12.522Z,26.37
2019-05-23T16:28:39.708Z,26.43
2019-05-23T16:31:06.814Z,26.48
2019-05-23T16:33:34.084Z,26.56
2019-05-23T16:36:01.286Z,26.57
2019-05-23T16:38:28.347Z,27.01
2019-05-23T16:40:55.462Z,26.64
2019-05-23T16:43:22.565Z,26.77
2019-05-23T16:45:49.826Z,27.36
2019-05-23T16:48:16.924Z,26.59
2019-05-23T16:50:44.052Z,26.97
2019-05-23T16:53:11.113Z,27.53
2019-05-23T16:55:53.974Z,26.89
2019-05-23T16:58:46.347Z,27.16
2019-05-23T17:01:24.682Z,26.30
2019-05-23T17:04:07.724Z,27.02
2019-05-23T17:06:46.880Z,28.37
2019-05-23T17:09:35.653Z,28.26
2019-05-23T17:12:22.396Z,27.98
2019-05-23T17:14:54.602Z,28.62
2019-05-23T17:18:00.178Z,30.11
2019-05-23T17:20:20.540Z,30.43
2019-05-23T17:22:58.914Z,31.32
2019-05-23T17:25:36.215Z,30.77
2019-05-23T17:28:13.667Z,31.17
2019-05-23T17:30:46.459Z,32.42
2019-05-23T17:33:13.739Z,33.51
2019-05-23T17:35:40.957Z,34.11
2019-05-23T17:38:08.064Z,34.84
2019-05-23T17:40:35.155Z,34.92
2019-05-23T17:43:02.238Z,35.40
2019-05-23T17:45:29.817Z,36.00
2019-05-23T17:47:58.045Z,35.93
2019-05-23T17:50:25.895Z,36.04
2019-05-23T17:52:53.000Z,36.51
2019-05-23T17:55:20.180Z,36.63
2019-05-23T17:57:47.384Z,37.17
2019-05-23T18:00:18.626Z,37.83
2019-05-23T18:02:45.961Z,38.55
2019-05-23T18:05:13.645Z,39.00
2019-05-23T18:10:22.040Z,40.72
2019-05-23T18:12:49.146Z,40.29
2019-05-23T18:17:58.796Z,40.92
2019-05-23T18:23:13.344Z,42.66
2019-05-23T18:25:41.706Z,43.50
2019-05-23T18:28:49.619Z,44.05
2019-05-23T18:31:24.394Z,44.51
2019-05-23T18:33:51.469Z,45.52
2019-05-23T18:36:19.037Z,46.35
2019-05-23T18:38:46.436Z,47.13
2019-05-23T18:41:13.533Z,47.58
2019-05-23T18:43:41.237Z,48.56
2019-05-23T18:46:14.561Z,49.53
2019-05-23T18:48:41.654Z,50.16
2019-05-23T18:51:09.374Z,50.74
2019-05-23T18:53:36.674Z,51.66
2019-05-23T18:56:05.050Z,52.95
2019-05-23T18:58:32.150Z,53.71
2019-05-23T19:01:15.434Z,54.67
2019-05-23T19:03:42.769Z,55.39
2019-05-23T19:06:09.947Z,55.77
2019-05-23T19:08:37.024Z,56.29
2019-05-23T19:11:19.561Z,56.53
2019-05-23T19:13:33.161Z,57.08
2019-05-23T19:16:00.266Z,57.84
2019-05-23T19:18:27.337Z,58.02
2019-05-23T19:20:55.633Z,58.02
2019-05-23T19:23:23.817Z,58.75
2019-05-23T19:25:50.934Z,58.46
2019-05-23T19:28:18.147Z,58.44
2019-05-23T19:30:45.315Z,59.02
2019-05-23T19:33:13.194Z,59.72
2019-05-23T19:35:41.144Z,60.17
2019-05-23T19:38:08.222Z,60.55
2019-05-23T19:40:35.351Z,60.86
2019-05-23T19:43:03.431Z,61.43
2019-05-23T19:45:31.032Z,61.76
2019-05-23T19:47:58.215Z,62.15
2019-05-23T19:50:26.325Z,62.52
2019-05-23T19:52:53.406Z,62.91
2019-05-23T19:55:20.809Z,62.92
2019-05-23T19:57:48.015Z,63.08
2019-05-23T20:00:17.772Z,63.29
2019-05-23T20:02:49.195Z,63.37
2019-05-23T20:05:28.639Z,63.53
2019-05-23T20:07:55.791Z,63.50
2019-05-23T20:10:23.186Z,63.73
2019-05-23T20:12:50.349Z,63.79
2019-05-23T20:15:17.469Z,63.78
2019-05-23T20:17:44.589Z,63.78
2019-05-23T20:20:11.773Z,63.82
2019-05-23T20:22:38.854Z,63.94
2019-05-23T20:25:06.249Z,64.34
2019-05-23T20:27:33.572Z,64.70
2019-05-23T20:30:00.685Z,64.70
2019-05-23T20:32:28.021Z,65.14
2019-05-23T20:34:55.142Z,65.10
2019-05-23T20:37:24.252Z,65.19
2019-05-23T20:39:51.373Z,66.16
2019-05-23T20:42:18.885Z,66.30
2019-05-23T20:44:46.560Z,66.30
2019-05-23T20:47:13.783Z,67.05
2019-05-23T20:49:40.855Z,67.42
2019-05-23T20:52:08.590Z,67.42
2019-05-23T20:54:35.684Z,67.48
2019-05-23T20:57:02.789Z,67.97
2019-05-23T20:59:29.910Z,68.12
2019-05-23T21:01:57.096Z,68.18
2019-05-23T21:04:24.214Z,68.26
2019-05-23T21:06:51.318Z,68.74
2019-05-23T21:09:18.385Z,68.86
2019-05-23T21:11:45.535Z,68.91
2019-05-23T21:14:12.590Z,69.05
2019-05-23T21:16:39.683Z,69.08
2019-05-23T21:19:06.762Z,69.37
2019-05-23T21:21:33.842Z,69.56
2019-05-23T21:24:00.935Z,69.74
2019-05-23T21:26:27.984Z,69.82
2019-05-23T21:28:55.099Z,69.87
2019-05-23T21:31:22.640Z,70.03
2019-05-23T21:33:49.824Z,70.06
2019-05-23T21:36:16.969Z,70.15
2019-05-23T21:38:44.051Z,70.10
2019-05-23T21:41:11.117Z,70.12
2019-05-23T21:43:38.206Z,70.21
2019-05-23T21:46:05.304Z,70.26
2019-05-23T21:48:32.395Z,70.30
2019-05-23T21:50:59.616Z,70.52
2019-05-23T21:53:26.771Z,70.67
2019-05-23T21:55:53.880Z,70.67
2019-05-23T21:58:20.932Z,70.83
2019-05-23T22:01:35.655Z,71.01
2019-05-23T22:04:20.904Z,71.07
2019-05-23T22:06:55.688Z,71.11
2019-05-23T22:09:22.820Z,71.30
2019-05-23T22:11:51.814Z,71.53
2019-05-23T22:14:18.942Z,71.63
2019-05-23T22:16:46.020Z,71.61
2019-05-23T22:19:15.500Z,71.78
2019-05-23T22:21:42.621Z,71.88
2019-05-23T22:24:09.948Z,72.05
2019-05-23T22:26:37.086Z,72.14
2019-05-23T22:29:05.498Z,72.25
2019-05-23T22:31:32.753Z,72.33
2019-05-23T22:34:05.862Z,72.43
2019-05-23T22:36:32.931Z,72.39
2019-05-23T22:39:00.009Z,72.39
2019-05-23T22:41:27.116Z,72.54
2019-05-23T22:43:54.211Z,72.80
2019-05-23T22:46:22.673Z,72.90
2019-05-23T22:48:49.777Z,72.90
2019-05-23T22:51:16.836Z,72.82
2019-05-23T22:53:43.933Z,72.85
2019-05-23T22:56:11.053Z,73.08
2019-05-23T22:58:38.168Z,73.10
2019-05-23T23:01:05.442Z,73.28
2019-05-23T23:03:32.530Z,73.27
2019-05-23T23:05:59.588Z,73.34
2019-05-23T23:08:27.506Z,73.38
2019-05-23T23:10:54.594Z,73.37
2019-05-23T23:13:37.630Z,73.30
2019-05-23T23:15:52.240Z,73.40
2019-05-23T23:18:19.349Z,73.51
2019-05-23T23:20:46.375Z,73.52
2019-05-23T23:23:13.592Z,73.57
2019-05-23T23:25:42.170Z,73.50
2019-05-23T23:28:09.249Z,73.46
2019-05-23T23:30:38.329Z,73.52
2019-05-23T23:33:05.403Z,73.61
2019-05-23T23:35:32.559Z,73.74
2019-05-23T23:37:59.637Z,73.77
2019-05-23T23:40:26.722Z,73.86
2019-05-23T23:42:53.794Z,73.79
2019-05-23T23:45:39.201Z,74.00
2019-05-23T23:48:24.774Z,74.01
2019-05-23T23:51:10.322Z,73.95
2019-05-23T23:53:56.000Z,73.96
2019-05-23T23:56:41.880Z,74.07
2019-05-23T23:59:08.559Z,74.13
